Time;durP1;ratioP1;P1;durP2;ratioP2;P2;SDS_P1;SDS_P2;PMS_P1;PMS_P2;Temp;Humidity;BMP_temperature;BMP_pressure;BME280_temperature;BME280_humidity;BME280_pressure;Samples;Min_cycle;Max_cycle;Signal;HPM_P1;HPM_P2
2020/12/10 00:00:11;;;;;;;59.72;25.80;;;;;;;2.62;70.31;100698.22;682713;28;47177;-58
2020/12/10 00:00:33;;;;;;;60.75;25.65;;;;;;;2.63;70.30;100699.88;680771;28;81643;-55
2020/12/10 00:00:54;;;;;;;59.85;26.67;;;;;;;2.62;70.46;100695.56;682363;28;21543;-58
2020/12/10 00:01:15;;;;;;;58.97;26.83;;;;;;;2.59;70.52;100691.31;682885;28;21556;-57
2020/12/10 00:01:37;;;;;;;59.67;25.73;;;;;;;2.60;70.49;100698.34;682587;28;23545;-57
2020/12/10 00:01:58;;;;;;;61.97;25.80;;;;;;;2.59;70.42;100698.47;682303;28;45290;-55
2020/12/10 00:02:19;;;;;;;58.75;25.52;;;;;;;2.59;70.31;100691.31;683508;28;7862;-59
2020/12/10 00:02:40;;;;;;;58.72;26.23;;;;;;;2.58;70.48;100689.59;683155;28;22407;-59
2020/12/10 00:03:02;;;;;;;59.85;26.23;;;;;;;2.59;70.51;100695.81;682670;28;39066;-58
2020/12/10 00:03:24;;;;;;;62.15;26.10;;;;;;;2.59;70.48;100685.97;682737;28;23579;-59
2020/12/10 00:03:47;;;;;;;64.22;26.48;;;;;;;2.57;70.60;100692.41;681185;28;44130;-54
2020/12/10 00:04:08;;;;;;;63.00;26.02;;;;;;;2.55;70.44;100689.03;681043;28;70227;-56
2020/12/10 00:04:29;;;;;;;55.95;25.40;;;;;;;2.55;70.69;100687.19;682703;28;23489;-59
2020/12/10 00:04:51;;;;;;;57.33;25.60;;;;;;;2.57;70.57;100692.41;682718;28;21426;-59
2020/12/10 00:05:12;;;;;;;58.95;26.60;;;;;;;2.59;70.55;100695.81;681474;28;46321;-57
2020/12/10 00:05:34;;;;;;;63.22;26.75;;;;;;;2.59;70.65;100698.47;682531;28;19496;-59
2020/12/10 00:05:55;;;;;;;58.70;25.05;;;;;;;2.60;70.45;100689.47;682592;28;23365;-59
2020/12/10 00:06:18;;;;;;;59.53;25.48;;;;;;;2.58;70.47;100699.44;682462;28;23636;-57
2020/12/10 00:06:40;;;;;;;54.05;25.13;;;;;;;2.59;70.49;100693.97;682213;28;27230;-59
2020/12/10 00:07:02;;;;;;;52.40;24.85;;;;;;;2.57;70.44;100682.59;681900;28;40355;-58
2020/12/10 00:07:24;;;;;;;57.22;25.58;;;;;;;2.57;70.56;100687.06;681899;28;46430;-59
2020/12/10 00:07:45;;;;;;;63.83;26.23;;;;;;;2.58;70.63;100699.44;684569;28;14070;-58
2020/12/10 00:08:07;;;;;;;61.63;26.23;;;;;;;2.59;70.60;100695.81;683317;28;43039;-59
2020/12/10 00:08:28;;;;;;;62.80;26.83;;;;;;;2.58;70.44;100686.09;683969;28;21476;-57
2020/12/10 00:08:49;;;;;;;57.72;26.50;;;;;;;2.56;70.63;100678.22;683455;28;44385;-59
2020/12/10 00:09:11;;;;;;;58.88;26.58;;;;;;;2.57;70.62;100689.72;684175;28;21648;-58
2020/12/10 00:09:32;;;;;;;56.72;25.92;;;;;;;2.59;70.04;100687.81;684500;28;13895;-58
2020/12/10 00:09:54;;;;;;;60.38;25.98;;;;;;;2.60;70.56;100678.81;683453;28;42993;-57
2020/12/10 00:10:16;;;;;;;57.53;25.65;;;;;;;2.61;70.58;100689.34;683452;28;46306;-58
2020/12/10 00:10:37;;;;;;;53.13;25.60;;;;;;;2.60;70.64;100686.81;682366;28;22405;-58
2020/12/10 00:10:58;;;;;;;59.78;26.40;;;;;;;2.61;70.54;100688.50;684254;28;22473;-59
2020/12/10 00:11:19;;;;;;;63.72;26.13;;;;;;;2.62;70.47;100687.56;683496;28;45277;-59
2020/12/10 00:11:41;;;;;;;60.90;26.55;;;;;;;2.62;70.72;100680.38;684798;28;822;-56
2020/12/10 00:12:03;;;;;;;62.60;26.15;;;;;;;2.62;70.55;100688.38;684002;28;30286;-55
2020/12/10 00:12:24;;;;;;;59.25;25.17;;;;;;;2.62;70.40;100680.38;683133;28;44406;-59
2020/12/10 00:12:46;;;;;;;60.75;26.38;;;;;;;2.61;70.50;100678.69;683465;28;23586;-54
2020/12/10 00:13:07;;;;;;;62.60;26.00;;;;;;;2.61;70.50;100677.84;684281;28;20143;-59
2020/12/10 00:13:29;;;;;;;59.90;26.00;;;;;;;2.61;70.36;100686.69;683240;28;44416;-58
2020/12/10 00:13:50;;;;;;;61.83;27.05;;;;;;;2.62;70.35;100680.38;683849;28;23381;-59
2020/12/10 00:14:11;;;;;;;58.55;26.63;;;;;;;2.62;70.52;100683.06;683315;28;44385;-59
2020/12/10 00:14:33;;;;;;;60.20;25.95;;;;;;;2.63;70.40;100681.22;684163;28;22390;-58
2020/12/10 00:14:54;;;;;;;62.15;26.98;;;;;;;2.59;70.33;100675.31;684102;28;23496;-57
2020/12/10 00:15:16;;;;;;;59.28;26.60;;;;;;;2.57;70.46;100687.94;682989;28;46109;-57
2020/12/10 00:15:37;;;;;;;60.45;26.10;;;;;;;2.57;70.41;100687.94;683735;28;21554;-58
2020/12/10 00:15:58;;;;;;;60.63;26.27;;;;;;;2.58;70.54;100681.59;683214;28;22814;-57
2020/12/10 00:16:20;;;;;;;63.35;25.85;;;;;;;2.58;70.53;100675.44;683349;28;46293;-58
2020/12/10 00:16:41;;;;;;;61.85;26.92;;;;;;;2.57;70.45;100681.72;684000;28;22387;-57
2020/12/10 00:17:02;;;;;;;60.33;27.67;;;;;;;2.56;70.51;100682.72;684026;28;22428;-59
2020/12/10 00:17:29;;;;;;;60.85;26.73;;;;;;;2.56;70.59;100682.72;683947;28;22282;-59
2020/12/10 00:17:51;;;;;;;60.95;26.70;;;;;;;2.56;70.45;100686.22;680482;28;136427;-59
2020/12/10 00:18:12;;;;;;;60.03;26.67;;;;;;;2.56;70.29;100693.38;684224;28;21716;-55
2020/12/10 00:18:33;;;;;;;56.17;25.88;;;;;;;2.56;70.61;100688.06;684284;28;22450;-57
2020/12/10 00:18:54;;;;;;;63.05;26.63;;;;;;;2.55;70.62;100686.34;683993;28;22385;-58
2020/12/10 00:19:16;;;;;;;60.50;26.58;;;;;;;2.53;70.61;100695.31;683854;28;24342;-56
2020/12/10 00:19:39;;;;;;;58.67;26.77;;;;;;;2.52;70.75;100692.78;683221;28;44395;-59
2020/12/10 00:20:00;;;;;;;61.08;25.95;;;;;;;2.52;70.67;100690.97;682601;28;69704;-57
2020/12/10 00:20:21;;;;;;;63.83;27.02;;;;;;;2.55;70.75;100687.19;684149;28;23513;-58
2020/12/10 00:20:43;;;;;;;60.45;26.67;;;;;;;2.53;70.68;100692.66;686943;28;22416;-59
2020/12/10 00:21:05;;;;;;;58.72;26.55;;;;;;;2.55;70.58;100689.84;683856;28;22389;-59
2020/12/10 00:21:26;;;;;;;62.95;27.27;;;;;;;2.54;70.73;100688.19;683393;28;45254;-58
2020/12/10 00:21:48;;;;;;;56.70;26.35;;;;;;;2.56;70.65;100682.72;683395;28;46285;-59
2020/12/10 00:22:09;;;;;;;56.03;25.65;;;;;;;2.56;70.43;100683.56;682433;28;42956;-59
2020/12/10 00:22:33;;;;;;;56.85;26.05;;;;;;;2.57;70.42;100689.72;684379;28;16139;-58
2020/12/10 00:22:54;;;;;;;58.83;26.15;;;;;;;2.58;70.41;100688.78;682756;28;64142;-58
2020/12/10 00:23:15;;;;;;;63.28;26.63;;;;;;;2.55;70.55;100683.69;683909;28;16027;-56
2020/12/10 00:23:36;;;;;;;65.85;26.25;;;;;;;2.57;70.40;100687.06;684855;28;22406;-56
2020/12/10 00:23:58;;;;;;;58.53;25.73;;;;;;;2.56;70.55;100691.56;692191;28;23494;-58
2020/12/10 00:24:19;;;;;;;56.47;25.85;;;;;;;2.57;70.35;100681.72;683115;28;45214;-59
2020/12/10 00:24:40;;;;;;;56.92;25.42;;;;;;;2.56;70.33;100680.06;687547;28;22414;-57
2020/12/10 00:25:05;;;;;;;58.72;26.10;;;;;;;2.56;70.52;100693.38;685091;28;22371;-57
2020/12/10 00:25:26;;;;;;;60.08;25.67;;;;;;;2.55;70.30;100681.03;680788;28;115364;-57
2020/12/10 00:25:48;;;;;;;57.38;25.88;;;;;;;2.56;70.32;100694.22;683364;28;44393;-59
2020/12/10 00:26:10;;;;;;;59.35;25.50;;;;;;;2.57;70.33;100684.41;684225;28;21496;-55
2020/12/10 00:26:32;;;;;;;60.47;26.38;;;;;;;2.57;70.36;100690.59;683187;28;70089;-58
2020/12/10 00:26:54;;;;;;;58.17;26.65;;;;;;;2.59;70.34;100687.81;683920;28;46136;-59
2020/12/10 00:27:15;;;;;;;59.83;26.33;;;;;;;2.58;70.33;100684.28;684248;28;21300;-58
2020/12/10 00:27:37;;;;;;;56.70;24.77;;;;;;;2.58;70.14;100691.44;684764;28;66474;-58
2020/12/10 00:27:59;;;;;;;54.97;25.27;;;;;;;2.58;69.99;100688.78;683216;28;45314;-59
2020/12/10 00:28:20;;;;;;;57.15;25.75;;;;;;;2.59;70.26;100691.31;684425;28;15849;-59
2020/12/10 00:28:42;;;;;;;59.25;25.33;;;;;;;2.57;70.21;100698.59;683842;28;23462;-58
2020/12/10 00:29:03;;;;;;;58.10;25.13;;;;;;;2.56;70.20;100690.72;683448;28;44400;-57
2020/12/10 00:29:24;;;;;;;58.13;25.27;;;;;;;2.56;70.31;100682.72;683895;28;22410;-53
2020/12/10 00:29:46;;;;;;;58.90;26.15;;;;;;;2.53;70.25;100689.16;684128;28;22371;-58
2020/12/10 00:30:09;;;;;;;57.33;26.63;;;;;;;2.53;70.19;100683.81;683409;28;44152;-57
2020/12/10 00:30:30;;;;;;;61.78;27.33;;;;;;;2.54;70.34;100674.84;682413;28;69425;-58
2020/12/10 00:30:51;;;;;;;59.75;27.13;;;;;;;2.53;70.32;100681.97;684062;28;21555;-57
2020/12/10 00:31:13;;;;;;;62.03;26.63;;;;;;;2.53;70.34;100679.31;683826;28;23439;-55
2020/12/10 00:31:37;;;;;;;62.05;25.52;;;;;;;2.51;70.46;100685.78;683133;28;46294;-56
2020/12/10 00:31:58;;;;;;;58.75;25.67;;;;;;;2.53;70.43;100673.16;681713;28;92272;-56
2020/12/10 00:32:19;;;;;;;55.35;24.65;;;;;;;2.52;70.43;100674.97;683891;28;22523;-57
2020/12/10 00:32:40;;;;;;;58.10;25.90;;;;;;;2.52;70.40;100677.66;684092;28;22678;-59
2020/12/10 00:33:02;;;;;;;59.00;25.42;;;;;;;2.51;70.43;100672.44;684170;28;22406;-59
2020/12/10 00:33:23;;;;;;;60.22;26.33;;;;;;;2.52;70.48;100679.44;683324;28;46214;-58
2020/12/10 00:33:45;;;;;;;57.65;25.70;;;;;;;2.52;70.42;100674.09;684159;28;21559;-55
2020/12/10 00:34:06;;;;;;;57.25;25.23;;;;;;;2.50;70.39;100673.41;683428;28;30594;-56
2020/12/10 00:34:27;;;;;;;59.92;26.05;;;;;;;2.51;70.44;100675.94;683964;28;23215;-58
2020/12/10 00:34:49;;;;;;;58.72;26.08;;;;;;;2.51;70.34;100681.28;683765;28;22443;-59
2020/12/10 00:35:10;;;;;;;57.33;25.83;;;;;;;2.51;70.44;100681.28;682428;28;44947;-58
2020/12/10 00:35:31;;;;;;;58.83;25.67;;;;;;;2.50;70.32;100687.56;683788;28;22566;-58
2020/12/10 00:35:53;;;;;;;58.08;26.92;;;;;;;2.51;70.41;100681.28;684010;28;22384;-58
2020/12/10 00:36:14;;;;;;;60.88;26.88;;;;;;;2.51;70.36;100683.94;683360;28;46332;-58
2020/12/10 00:36:36;;;;;;;62.97;27.25;;;;;;;2.48;70.41;100681.53;683464;28;45337;-57
2020/12/10 00:36:58;;;;;;;57.60;25.92;;;;;;;2.47;70.52;100663.81;684149;28;23404;-57
2020/12/10 00:37:19;;;;;;;62.60;25.60;;;;;;;2.49;70.41;100672.56;682733;28;44412;-58
2020/12/10 00:37:41;;;;;;;59.75;26.63;;;;;;;2.51;70.50;100670.59;683438;28;21529;-59
2020/12/10 00:38:02;;;;;;;62.53;26.65;;;;;;;2.51;70.33;100672.44;682499;28;46345;-57
2020/12/10 00:38:23;;;;;;;64.38;27.08;;;;;;;2.50;70.41;100668.91;683968;28;22386;-57
2020/12/10 00:38:45;;;;;;;61.20;26.73;;;;;;;2.51;70.39;100664.44;683290;28;44438;-59
2020/12/10 00:39:06;;;;;;;59.33;26.55;;;;;;;2.50;70.27;100657.41;683825;28;22355;-56
2020/12/10 00:39:28;;;;;;;58.88;26.70;;;;;;;2.53;70.44;100665.16;684020;28;22973;-58
2020/12/10 00:39:49;;;;;;;61.30;26.92;;;;;;;2.53;70.28;100662.47;682823;28;46002;-54
2020/12/10 00:40:10;;;;;;;64.78;26.38;;;;;;;2.53;70.34;100673.16;683705;28;21615;-58
2020/12/10 00:40:31;;;;;;;63.70;27.23;;;;;;;2.55;70.26;100670.34;683584;28;22290;-58
2020/12/10 00:40:53;;;;;;;62.33;26.60;;;;;;;2.53;70.41;100676.66;682839;28;45215;-57
2020/12/10 00:41:15;;;;;;;62.75;26.73;;;;;;;2.55;70.25;100681.03;684170;28;23472;-59
2020/12/10 00:41:36;;;;;;;63.85;26.05;;;;;;;2.53;70.21;100667.81;683170;28;46312;-57
2020/12/10 00:41:57;;;;;;;59.65;25.40;;;;;;;2.54;70.14;100677.53;684540;28;980;-57
2020/12/10 00:42:19;;;;;;;58.45;25.35;;;;;;;2.51;70.29;100675.09;680841;29;23654;-57
2020/12/10 00:42:40;;;;;;;58.97;25.88;;;;;;;2.51;70.02;100673.28;680850;28;46308;-57
2020/12/10 00:43:02;;;;;;;62.60;26.33;;;;;;;2.49;70.23;100669.91;680857;29;23493;-58
2020/12/10 00:43:23;;;;;;;61.47;26.20;;;;;;;2.49;70.28;100674.34;680468;29;44401;-59
2020/12/10 00:43:44;;;;;;;57.75;25.92;;;;;;;2.49;70.31;100679.69;682334;28;22368;-58
2020/12/10 00:44:06;;;;;;;55.08;25.60;;;;;;;2.50;70.38;100681.41;683495;28;22385;-57
2020/12/10 00:44:27;;;;;;;55.97;25.75;;;;;;;2.49;70.29;100677.03;683282;28;44478;-56
2020/12/10 00:44:48;;;;;;;60.65;26.92;;;;;;;2.49;70.29;100679.69;686188;28;44389;-56
2020/12/10 00:45:10;;;;;;;61.42;26.55;;;;;;;2.50;70.28;100678.72;683810;28;22318;-59
2020/12/10 00:45:32;;;;;;;60.17;25.92;;;;;;;2.50;70.31;100682.22;683538;28;22434;-54
2020/12/10 00:45:53;;;;;;;63.80;25.83;;;;;;;2.50;70.37;100684.91;683472;28;44411;-59
2020/12/10 00:46:14;;;;;;;58.45;25.55;;;;;;;2.51;70.37;100683.09;681267;29;22385;-57
2020/12/10 00:46:39;;;;;;;60.53;27.13;;;;;;;2.51;70.46;100689.28;681322;28;45644;-58
2020/12/10 00:47:00;;;;;;;61.63;25.25;;;;;;;2.51;70.30;100688.44;678781;28;92178;-58
2020/12/10 00:47:22;;;;;;;59.45;25.38;;;;;;;2.51;70.19;100686.59;683564;28;44388;-59
2020/12/10 00:47:47;;;;;;;67.00;28.55;;;;;;;2.51;70.20;100694.59;684820;28;113343;-56
2020/12/10 00:48:09;;;;;;;61.88;26.52;;;;;;;2.51;70.23;100689.28;680211;29;45324;-59
2020/12/10 00:48:31;;;;;;;59.45;26.85;;;;;;;2.53;70.17;100689.16;679784;28;1018;-56
2020/12/10 00:48:52;;;;;;;64.75;27.25;;;;;;;2.54;70.22;100682.84;677837;29;44366;-57
2020/12/10 00:49:13;;;;;;;61.13;26.83;;;;;;;2.53;70.37;100687.31;677041;29;22570;-58
2020/12/10 00:49:35;;;;;;;57.58;25.65;;;;;;;2.55;70.24;100684.53;674849;29;23522;-59
2020/12/10 00:49:57;;;;;;;59.08;26.30;;;;;;;2.55;70.18;100683.69;677907;29;14516;-59
2020/12/10 00:50:18;;;;;;;62.60;26.45;;;;;;;2.55;70.20;100683.69;678255;29;45561;-59
2020/12/10 00:50:39;;;;;;;60.92;26.33;;;;;;;2.56;70.10;100680.06;681212;29;22379;-58
2020/12/10 00:51:01;;;;;;;63.10;27.30;;;;;;;2.55;70.18;100683.69;678284;29;46330;-59
2020/12/10 00:51:23;;;;;;;60.17;25.88;;;;;;;2.55;70.14;100678.34;679375;28;44369;-56
2020/12/10 00:51:45;;;;;;;62.42;27.00;;;;;;;2.57;69.99;100674.59;683042;28;42161;-57
2020/12/10 00:52:07;;;;;;;58.55;25.98;;;;;;;2.57;69.98;100681.72;679578;29;44373;-59
2020/12/10 00:52:29;;;;;;;59.80;26.77;;;;;;;2.57;69.85;100681.72;677673;29;45219;-55
2020/12/10 00:52:57;;;;;;;62.28;26.92;;;;;;;2.56;69.90;100683.56;675984;29;137799;-58
2020/12/10 00:53:18;;;;;;;57.60;25.90;;;;;;;2.55;69.85;100681.03;679915;29;21603;-59
2020/12/10 00:53:39;;;;;;;63.55;27.15;;;;;;;2.53;69.84;100689.16;677969;29;46208;-57
2020/12/10 00:54:01;;;;;;;60.83;26.10;;;;;;;2.50;69.92;100684.91;677541;29;23487;-57
2020/12/10 00:54:23;;;;;;;60.53;26.80;;;;;;;2.53;70.05;100684.66;677282;29;43740;-58
2020/12/10 00:54:45;;;;;;;61.70;26.92;;;;;;;2.53;69.91;100675.81;677656;29;45239;-58
2020/12/10 00:55:10;;;;;;;59.05;26.15;;;;;;;2.55;69.91;100671.19;672211;29;137972;-57
2020/12/10 00:55:33;;;;;;;58.33;25.80;;;;;;;2.56;69.95;100677.38;678581;29;67340;-57
2020/12/10 00:55:55;;;;;;;60.38;26.05;;;;;;;2.55;69.92;100678.34;678766;29;21531;-59
2020/12/10 00:56:16;;;;;;;59.47;26.75;;;;;;;2.53;69.93;100689.97;677479;29;46479;-56
2020/12/10 00:56:38;;;;;;;60.45;27.52;;;;;;;2.53;69.76;100687.31;678169;29;15898;-56
2020/12/10 00:56:59;;;;;;;64.30;26.90;;;;;;;2.54;69.83;100680.19;679783;29;12654;-55
2020/12/10 00:57:21;;;;;;;65.93;27.30;;;;;;;2.53;69.77;100676.66;682390;28;6929;-57
2020/12/10 00:57:42;;;;;;;60.97;26.42;;;;;;;2.52;69.84;100682.97;682869;28;43471;-57
2020/12/10 00:58:04;;;;;;;57.75;25.38;;;;;;;2.51;69.85;100675.94;682640;28;46305;-59
2020/12/10 00:58:25;;;;;;;58.17;26.20;;;;;;;2.51;70.07;100677.78;684035;28;23461;-58
2020/12/10 00:58:46;;;;;;;62.58;26.23;;;;;;;2.49;70.01;100683.22;689619;28;46382;-58
2020/12/10 00:59:08;;;;;;;60.78;26.38;;;;;;;2.50;70.00;100679.56;683427;28;22375;-58
2020/12/10 00:59:29;;;;;;;61.42;27.38;;;;;;;2.52;69.96;100666.09;683906;28;45326;-58
2020/12/10 00:59:50;;;;;;;64.00;28.02;;;;;;;2.52;69.85;100682.09;685197;28;22629;-56
2020/12/10 01:00:12;;;;;;;62.17;26.77;;;;;;;2.50;69.95;100676.06;684183;28;23412;-58
2020/12/10 01:00:34;;;;;;;63.90;26.83;;;;;;;2.50;69.87;100670.72;684396;28;44397;-57
2020/12/10 01:00:55;;;;;;;65.82;26.80;;;;;;;2.51;69.90;100672.44;685259;28;22424;-58
2020/12/10 01:01:16;;;;;;;68.32;26.70;;;;;;;2.50;69.90;100678.72;684178;28;21616;-56
2020/12/10 01:01:40;;;;;;;64.05;26.38;;;;;;;2.46;69.81;100662.16;684311;28;44383;-58
2020/12/10 01:02:02;;;;;;;61.78;26.92;;;;;;;2.49;69.87;100677.91;681394;28;92414;-59
2020/12/10 01:02:23;;;;;;;66.68;27.63;;;;;;;2.48;69.86;100675.34;683171;28;21513;-59
2020/12/10 01:02:44;;;;;;;65.05;27.45;;;;;;;2.47;69.88;100670.97;684371;28;46336;-56
2020/12/10 01:03:06;;;;;;;60.55;26.73;;;;;;;2.46;69.96;100667.47;684377;28;18576;-57
2020/12/10 01:03:27;;;;;;;63.13;26.63;;;;;;;2.46;69.98;100671.94;684091;28;21555;-58
2020/12/10 01:03:48;;;;;;;67.38;26.80;;;;;;;2.46;69.99;100666.63;683230;28;44352;-57
2020/12/10 01:04:10;;;;;;;62.85;26.90;;;;;;;2.44;70.12;100677.41;683899;28;22384;-54
2020/12/10 01:04:31;;;;;;;57.75;26.77;;;;;;;2.44;70.10;100679.22;683238;28;46434;-56
2020/12/10 01:04:53;;;;;;;63.97;28.67;;;;;;;2.44;70.08;100673.91;684000;28;23420;-56
2020/12/10 01:05:14;;;;;;;68.30;28.35;;;;;;;2.43;70.12;100678.41;683788;28;23446;-58
2020/12/10 01:05:36;;;;;;;67.25;27.63;;;;;;;2.45;70.17;100678.28;683021;28;45390;-57
2020/12/10 01:05:57;;;;;;;67.85;28.10;;;;;;;2.46;70.16;100685.28;683204;28;45290;-58
2020/12/10 01:06:18;;;;;;;70.88;28.88;;;;;;;2.46;70.22;100686.16;684172;28;23449;-58
2020/12/10 01:06:40;;;;;;;68.43;28.10;;;;;;;2.46;70.19;100679.94;683974;28;22398;-59
2020/12/10 01:07:01;;;;;;;68.57;28.00;;;;;;;2.45;70.17;100679.09;683990;28;23492;-58
2020/12/10 01:07:23;;;;;;;63.97;27.10;;;;;;;2.45;70.24;100680.94;683009;28;46599;-53
2020/12/10 01:07:48;;;;;;;65.22;27.98;;;;;;;2.45;70.19;100675.59;682202;28;66587;-55
2020/12/10 01:08:09;;;;;;;62.83;27.75;;;;;;;2.43;70.34;100675.72;680508;28;115040;-58
2020/12/10 01:08:30;;;;;;;62.95;27.60;;;;;;;2.44;70.37;100673.91;684081;28;22281;-56
2020/12/10 01:08:52;;;;;;;63.28;27.50;;;;;;;2.44;70.19;100674.75;684024;28;23429;-57
2020/12/10 01:09:13;;;;;;;60.17;25.95;;;;;;;2.43;70.30;100674.88;683326;28;46234;-57
2020/12/10 01:09:35;;;;;;;67.60;26.90;;;;;;;2.43;70.31;100678.41;683990;28;22406;-56
2020/12/10 01:09:56;;;;;;;63.13;27.10;;;;;;;2.43;70.41;100670.41;683632;28;23463;-57
2020/12/10 01:10:18;;;;;;;61.15;27.30;;;;;;;2.43;70.38;100674.88;683353;28;46292;-59
2020/12/10 01:10:39;;;;;;;63.92;27.35;;;;;;;2.42;70.35;100675.84;684071;28;22786;-57
2020/12/10 01:11:00;;;;;;;64.03;26.52;;;;;;;2.43;70.43;100669.53;683364;28;46327;-56
2020/12/10 01:11:26;;;;;;;68.30;28.10;;;;;;;2.39;70.54;100668.94;684128;28;21496;-56
2020/12/10 01:11:47;;;;;;;63.28;27.50;;;;;;;2.41;70.45;100674.16;679465;28;137982;-59
2020/12/10 01:12:09;;;;;;;69.30;27.88;;;;;;;2.40;70.38;100669.78;684157;28;22786;-57
2020/12/10 01:12:30;;;;;;;71.82;28.60;;;;;;;2.40;70.47;100675.97;683256;28;46303;-56
2020/12/10 01:12:51;;;;;;;69.28;28.10;;;;;;;2.41;70.49;100677.66;684229;28;21558;-58
2020/12/10 01:13:12;;;;;;;65.60;28.02;;;;;;;2.40;70.44;100678.66;684031;28;23333;-58
2020/12/10 01:13:34;;;;;;;66.25;28.00;;;;;;;2.42;70.41;100679.34;684086;28;21305;-57
2020/12/10 01:13:56;;;;;;;66.40;28.17;;;;;;;2.43;70.41;100682.88;683389;28;46335;-57
2020/12/10 01:14:18;;;;;;;66.95;28.15;;;;;;;2.43;70.36;100678.41;684942;28;46661;-56
2020/12/10 01:14:39;;;;;;;66.38;28.27;;;;;;;2.43;70.32;100675.72;685836;28;46386;-58
2020/12/10 01:15:00;;;;;;;61.88;27.80;;;;;;;2.43;70.23;100678.41;686429;28;21297;-59
2020/12/10 01:15:22;;;;;;;58.17;26.73;;;;;;;2.43;70.15;100675.72;686518;28;21526;-57
2020/12/10 01:15:43;;;;;;;62.28;27.27;;;;;;;2.44;70.27;100679.22;685762;28;44271;-57
2020/12/10 01:16:05;;;;;;;59.38;27.05;;;;;;;2.44;70.18;100677.41;686156;28;853;-57
2020/12/10 01:16:26;;;;;;;60.17;27.08;;;;;;;2.44;70.20;100671.22;683212;28;44380;-55
2020/12/10 01:16:47;;;;;;;65.32;27.52;;;;;;;2.43;70.27;100674.88;684117;28;21328;-59
2020/12/10 01:17:09;;;;;;;68.15;27.77;;;;;;;2.43;70.24;100674.88;684052;28;23480;-58
2020/12/10 01:17:30;;;;;;;64.53;27.15;;;;;;;2.42;70.29;100663.38;682886;28;44302;-58
2020/12/10 01:17:52;;;;;;;63.58;27.88;;;;;;;2.41;70.12;100675.00;684020;28;23356;-57
2020/12/10 01:18:13;;;;;;;62.78;27.92;;;;;;;2.42;70.16;100667.84;683210;28;46314;-58
2020/12/10 01:18:34;;;;;;;59.97;27.10;;;;;;;2.41;70.21;100663.50;684416;28;12199;-59
2020/12/10 01:18:56;;;;;;;63.70;27.70;;;;;;;2.38;70.25;100666.41;683300;28;46320;-56
2020/12/10 01:19:17;;;;;;;64.95;27.30;;;;;;;2.37;70.15;100665.56;684182;28;22926;-58
2020/12/10 01:19:39;;;;;;;65.68;27.20;;;;;;;2.37;70.13;100668.22;684091;28;21558;-58
2020/12/10 01:20:00;;;;;;;63.30;26.73;;;;;;;2.37;70.26;100664.69;681620;28;46317;-56
2020/12/10 01:20:21;;;;;;;65.55;27.52;;;;;;;2.37;70.30;100667.38;683828;28;22213;-58
2020/12/10 01:20:43;;;;;;;70.25;28.63;;;;;;;2.34;70.47;100669.31;683377;28;41316;-58
2020/12/10 01:21:04;;;;;;;69.75;29.45;;;;;;;2.36;70.40;100674.53;684162;28;22397;-57
2020/12/10 01:21:30;;;;;;;63.97;27.45;;;;;;;2.36;70.34;100671.88;684076;28;23766;-56
2020/12/10 01:21:51;;;;;;;62.97;26.80;;;;;;;2.34;70.32;100669.31;679955;28;125654;-55
2020/12/10 01:22:12;;;;;;;68.38;28.67;;;;;;;2.34;70.45;100665.81;684163;28;20019;-57
2020/12/10 01:22:34;;;;;;;61.83;27.08;;;;;;;2.35;70.26;100667.50;684029;28;21554;-57
2020/12/10 01:22:56;;;;;;;65.80;27.30;;;;;;;2.36;70.49;100660.38;682077;28;70182;-58
2020/12/10 01:23:17;;;;;;;66.75;27.52;;;;;;;2.37;70.36;100665.56;683888;28;21432;-56
2020/12/10 01:23:39;;;;;;;63.78;26.85;;;;;;;2.36;70.34;100663.88;683263;28;46431;-58
2020/12/10 01:24:02;;;;;;;68.38;27.73;;;;;;;2.36;70.38;100655.88;683938;28;21554;-56
2020/12/10 01:24:24;;;;;;;68.00;28.40;;;;;;;2.34;70.22;100664.00;681485;28;90715;-58
2020/12/10 01:24:45;;;;;;;68.00;27.45;;;;;;;2.35;70.41;100664.81;684053;28;22875;-56
2020/12/10 01:25:07;;;;;;;62.35;27.50;;;;;;;2.35;70.44;100670.16;682740;28;46375;-59
2020/12/10 01:25:28;;;;;;;62.78;27.15;;;;;;;2.33;70.47;100659.63;683789;28;22456;-58
2020/12/10 01:25:49;;;;;;;64.57;27.83;;;;;;;2.32;70.34;100671.28;683728;28;21555;-59
2020/12/10 01:26:11;;;;;;;61.63;27.13;;;;;;;2.34;70.37;100673.81;681188;29;21601;-58
2020/12/10 01:26:33;;;;;;;63.30;27.33;;;;;;;2.34;70.41;100666.66;680380;29;46282;-59
2020/12/10 01:26:54;;;;;;;69.18;27.48;;;;;;;2.36;70.51;100666.53;680530;28;46477;-58
2020/12/10 01:27:21;;;;;;;63.40;28.05;;;;;;;2.37;70.38;100664.69;683210;28;46396;-57
2020/12/10 01:27:42;;;;;;;69.85;28.50;;;;;;;2.36;70.38;100666.53;679398;28;136445;-57
2020/12/10 01:28:04;;;;;;;66.03;28.65;;;;;;;2.35;70.34;100664.81;683461;28;37551;-59
2020/12/10 01:28:25;;;;;;;64.95;28.58;;;;;;;2.34;70.29;100663.16;684149;28;22411;-58
2020/12/10 01:28:46;;;;;;;65.65;28.27;;;;;;;2.33;70.28;100658.78;684029;28;22407;-58
2020/12/10 01:29:08;;;;;;;64.63;28.02;;;;;;;2.32;70.33;100659.75;682931;28;46211;-57
2020/12/10 01:29:29;;;;;;;63.22;26.95;;;;;;;2.30;70.45;100648.38;684018;28;23527;-57
2020/12/10 01:29:51;;;;;;;63.80;27.80;;;;;;;2.31;70.53;100656.25;684515;28;941;-57
2020/12/10 01:30:12;;;;;;;61.72;26.55;;;;;;;2.31;70.59;100652.75;684197;28;18953;-56
2020/12/10 01:30:34;;;;;;;64.70;26.98;;;;;;;2.29;70.65;100652.03;684519;28;4969;-58
2020/12/10 01:30:55;;;;;;;64.93;27.85;;;;;;;2.28;70.49;100648.50;684708;28;924;-58
2020/12/10 01:31:16;;;;;;;67.90;28.55;;;;;;;2.29;70.62;100652.03;684809;28;920;-58
2020/12/10 01:31:42;;;;;;;68.38;27.80;;;;;;;2.30;70.51;100657.25;682157;28;60803;-57
2020/12/10 01:32:03;;;;;;;64.32;27.58;;;;;;;2.29;70.47;100652.88;683666;28;35199;-58
2020/12/10 01:32:26;;;;;;;67.38;27.77;;;;;;;2.30;70.58;100649.25;683986;28;21534;-54
2020/12/10 01:32:47;;;;;;;68.63;28.92;;;;;;;2.29;70.70;100660.88;684067;28;21399;-58
2020/12/10 01:33:08;;;;;;;63.75;27.13;;;;;;;2.30;70.71;100659.91;683843;28;21566;-58
2020/12/10 01:33:30;;;;;;;69.60;28.05;;;;;;;2.29;70.67;100660.03;682849;28;46189;-57
2020/12/10 01:33:52;;;;;;;66.15;28.10;;;;;;;2.28;70.61;100659.16;682328;28;46381;-58
2020/12/10 01:34:13;;;;;;;66.15;28.23;;;;;;;2.26;70.76;100663.78;683959;28;23536;-59
2020/12/10 01:34:36;;;;;;;67.90;28.25;;;;;;;2.24;70.83;100657.75;684508;28;975;-58
2020/12/10 01:34:57;;;;;;;69.18;28.90;;;;;;;2.28;70.77;100658.31;683988;28;20337;-56
2020/12/10 01:35:18;;;;;;;68.78;28.75;;;;;;;2.26;70.75;100652.28;683703;28;21548;-58
2020/12/10 01:35:40;;;;;;;65.78;28.20;;;;;;;2.26;70.88;100654.94;683666;28;27558;-59
2020/12/10 01:36:02;;;;;;;64.15;28.40;;;;;;;2.25;70.77;100653.25;683891;28;846;-56
2020/12/10 01:36:25;;;;;;;63.67;27.60;;;;;;;2.25;70.83;100645.25;684032;28;18067;-55
2020/12/10 01:36:46;;;;;;;65.18;27.98;;;;;;;2.23;71.08;100650.69;682069;28;69414;-58
2020/12/10 01:37:07;;;;;;;69.90;28.10;;;;;;;2.23;70.85;100653.38;683091;28;44514;-59
2020/12/10 01:37:29;;;;;;;69.18;28.75;;;;;;;2.23;70.81;100653.38;684411;28;22381;-57
2020/12/10 01:37:51;;;;;;;65.47;27.30;;;;;;;2.23;70.89;100656.03;684959;28;67471;-57
2020/12/10 01:38:12;;;;;;;66.85;28.00;;;;;;;2.25;70.64;100661.25;683067;28;46426;-56
2020/12/10 01:38:34;;;;;;;70.15;29.10;;;;;;;2.25;70.82;100664.75;684747;28;21496;-57
2020/12/10 01:38:55;;;;;;;65.15;28.45;;;;;;;2.25;70.80;100662.06;685541;28;22411;-58
2020/12/10 01:39:17;;;;;;;67.88;28.95;;;;;;;2.25;70.91;100658.56;684053;28;22338;-58
2020/12/10 01:39:38;;;;;;;70.65;28.55;;;;;;;2.25;70.83;100659.41;685646;28;45342;-58
2020/12/10 01:39:59;;;;;;;73.55;28.98;;;;;;;2.25;70.95;100654.09;683787;28;22461;-56
2020/12/10 01:40:20;;;;;;;70.80;28.33;;;;;;;2.26;70.82;100649.63;682645;28;46331;-57
2020/12/10 01:40:49;;;;;;;67.30;27.85;;;;;;;2.25;70.83;100647.91;683793;28;21333;-59
2020/12/10 01:41:11;;;;;;;71.55;28.02;;;;;;;2.23;70.86;100645.38;679776;28;138042;-57